Dothan Regional Airport Dothan US
ICAO: KDHN
IATA: DHN
Category: Medium
Scheduled Services: Yes

Elevation: 401 ft
TransAlt. 18000 ft.

Airport Communications:
CAIRNS APP/DEP:125.4
ATIS:135.72
CTAF:118.4
GND:121.7
VFR ADVSY SVC:118.4
ANNISTON RDO:122.2
TWR:118.4
UNICOM:122.95

KDHN Zoom In..

Runways:

(A) RW 14 length 8499 ft width 150 ft
ILS 110.75 / hdg 138

(B) RW 18 length 5498 ft width 100 ft
---- / hdg 183

(C) RW 32 length 8499 ft width 150 ft
ILS 108.30 / hdg 318

(D) RW 36 length 5498 ft width 100 ft
---- / hdg 3

Location; KDHN
Day. 05 / Time. 13.53 Zulu
* Altimeter: 30.07
* Temperature: 26° c. 78.8°f.
* Wind from: VRB° Speed 03 kn.
Dewpoint: 21° c.
Visibility: 10 Statute Miles.
Clouds: Few 1800 ft.

KDHN 051353Z VRB03KT 10SM FEW018 26/21 A3007 RMK AO2 SLP178 T02610211


Wind From VRB°
Speed 03 kn.

 
 
jpsmedia worldairports.se 2020   terms of use